sensor_id;sensor_type;location;lat;lon;timestamp;pressure;altitude;pressure_sealevel;temperature;humidity
35507;BME280;36461;52.018;21.036;2023-03-04T00:01:31;100033.85;;;0.59;80.70
35507;BME280;36461;52.018;21.036;2023-03-04T00:03:59;100029.59;;;0.57;80.57
35507;BME280;36461;52.018;21.036;2023-03-04T00:06:27;100028.57;;;0.56;80.41
35507;BME280;36461;52.018;21.036;2023-03-04T00:08:55;100022.95;;;0.56;80.47
35507;BME280;36461;52.018;21.036;2023-03-04T00:11:23;100012.56;;;0.55;80.48
35507;BME280;36461;52.018;21.036;2023-03-04T00:13:52;100011.70;;;0.55;80.34
35507;BME280;36461;52.018;21.036;2023-03-04T00:16:20;100014.27;;;0.56;80.38
35507;BME280;36461;52.018;21.036;2023-03-04T00:18:48;100009.33;;;0.57;80.64
35507;BME280;36461;52.018;21.036;2023-03-04T00:21:16;100005.07;;;0.58;80.16
35507;BME280;36461;52.018;21.036;2023-03-04T00:23:44;100003.20;;;0.59;80.55
35507;BME280;36461;52.018;21.036;2023-03-04T00:26:13;100002.86;;;0.60;80.22
35507;BME280;36461;52.018;21.036;2023-03-04T00:28:42;100002.18;;;0.61;80.26
35507;BME280;36461;52.018;21.036;2023-03-04T00:31:10;100000.99;;;0.61;80.04
35507;BME280;36461;52.018;21.036;2023-03-04T00:33:38;100000.16;;;0.62;79.96
35507;BME280;36461;52.018;21.036;2023-03-04T00:36:07;100001.68;;;0.61;80.16
35507;BME280;36461;52.018;21.036;2023-03-04T00:38:35;99997.77;;;0.60;80.12
35507;BME280;36461;52.018;21.036;2023-03-04T00:41:03;99995.87;;;0.58;80.12
35507;BME280;36461;52.018;21.036;2023-03-04T00:43:32;99990.59;;;0.56;80.15
35507;BME280;36461;52.018;21.036;2023-03-04T00:46:00;99989.06;;;0.56;80.26
35507;BME280;36461;52.018;21.036;2023-03-04T00:48:29;99989.73;;;0.55;80.17
35507;BME280;36461;52.018;21.036;2023-03-04T00:50:57;99984.30;;;0.56;80.13
35507;BME280;36461;52.018;21.036;2023-03-04T00:53:25;99975.60;;;0.54;80.23
35507;BME280;36461;52.018;21.036;2023-03-04T00:55:53;99967.79;;;0.55;80.27
35507;BME280;36461;52.018;21.036;2023-03-04T00:58:22;99963.86;;;0.55;80.44
35507;BME280;36461;52.018;21.036;2023-03-04T01:00:51;99963.02;;;0.57;80.24
35507;BME280;36461;52.018;21.036;2023-03-04T01:03:19;99964.54;;;0.58;80.38
35507;BME280;36461;52.018;21.036;2023-03-04T01:05:47;99963.35;;;0.58;80.28
35507;BME280;36461;52.018;21.036;2023-03-04T01:08:16;99958.41;;;0.58;80.13
35507;BME280;36461;52.018;21.036;2023-03-04T01:10:44;99954.33;;;0.58;80.29
35507;BME280;36461;52.018;21.036;2023-03-04T01:13:12;99949.73;;;0.59;80.37
35507;BME280;36461;52.018;21.036;2023-03-04T01:15:40;99942.92;;;0.58;80.20
35507;BME280;36461;52.018;21.036;2023-03-04T01:18:08;99934.07;;;0.57;80.15
35507;BME280;36461;52.018;21.036;2023-03-04T01:20:36;99933.73;;;0.56;80.07
35507;BME280;36461;52.018;21.036;2023-03-04T01:23:04;99933.20;;;0.55;80.30
35507;BME280;36461;52.018;21.036;2023-03-04T01:25:33;99927.42;;;0.55;80.38
35507;BME280;36461;52.018;21.036;2023-03-04T01:28:01;99928.27;;;0.56;80.72
35507;BME280;36461;52.018;21.036;2023-03-04T01:30:29;99923.52;;;0.57;80.57
35507;BME280;36461;52.018;21.036;2023-03-04T01:32:57;99924.70;;;0.57;80.53
35507;BME280;36461;52.018;21.036;2023-03-04T01:35:25;99919.41;;;0.58;80.72
35507;BME280;36461;52.018;21.036;2023-03-04T01:37:53;99915.17;;;0.61;80.61
35507;BME280;36461;52.018;21.036;2023-03-04T01:40:21;99911.77;;;0.63;80.92
35507;BME280;36461;52.018;21.036;2023-03-04T01:42:49;99908.70;;;0.64;80.56
35507;BME280;36461;52.018;21.036;2023-03-04T01:45:18;99905.80;;;0.66;80.86
35507;BME280;36461;52.018;21.036;2023-03-04T01:47:48;99893.55;;;0.67;80.63
35507;BME280;36461;52.018;21.036;2023-03-04T01:50:31;99880.94;;;0.65;80.78
35507;BME280;36461;52.018;21.036;2023-03-04T01:53:01;99878.39;;;0.66;80.74
35507;BME280;36461;52.018;21.036;2023-03-04T01:55:30;99876.86;;;0.63;80.84
35507;BME280;36461;52.018;21.036;2023-03-04T01:57:59;99858.80;;;0.60;80.68
35507;BME280;36461;52.018;21.036;2023-03-04T02:00:30;99832.25;;;0.60;81.01
35507;BME280;36461;52.018;21.036;2023-03-04T02:03:02;99809.94;;;0.59;80.84
35507;BME280;36461;52.018;21.036;2023-03-04T02:05:32;99810.78;;;0.60;80.94
35507;BME280;36461;52.018;21.036;2023-03-04T02:08:02;99816.91;;;0.58;80.92
35507;BME280;36461;52.018;21.036;2023-03-04T02:10:31;99811.98;;;0.59;80.91
35507;BME280;36461;52.018;21.036;2023-03-04T02:13:01;99804.31;;;0.60;80.88
35507;BME280;36461;52.018;21.036;2023-03-04T02:15:29;99796.99;;;0.58;80.61
35507;BME280;36461;52.018;21.036;2023-03-04T02:17:58;99796.31;;;0.60;80.98
35507;BME280;36461;52.018;21.036;2023-03-04T02:24:01;99795.97;;;0.58;80.67
35507;BME280;36461;52.018;21.036;2023-03-04T02:26:32;99786.27;;;0.56;80.94
35507;BME280;36461;52.018;21.036;2023-03-04T02:29:03;99776.23;;;0.56;81.00
35507;BME280;36461;52.018;21.036;2023-03-04T02:31:34;99773.33;;;0.58;81.19
35507;BME280;36461;52.018;21.036;2023-03-04T02:34:06;99763.79;;;0.61;81.16
35507;BME280;36461;52.018;21.036;2023-03-04T02:36:37;99754.77;;;0.62;81.16
35507;BME280;36461;52.018;21.036;2023-03-04T02:39:11;99756.63;;;0.63;81.34
35507;BME280;36461;52.018;21.036;2023-03-04T02:41:40;99755.95;;;0.64;81.29
35507;BME280;36461;52.018;21.036;2023-03-04T02:44:32;99747.11;;;0.62;81.36
35507;BME280;36461;52.018;21.036;2023-03-04T02:47:04;99757.16;;;0.61;81.31
35507;BME280;36461;52.018;21.036;2023-03-04T02:49:33;99758.84;;;0.60;81.66
35507;BME280;36461;52.018;21.036;2023-03-04T02:52:08;99759.35;;;0.63;81.51
35507;BME280;36461;52.018;21.036;2023-03-04T02:54:38;99759.52;;;0.64;81.45
35507;BME280;36461;52.018;21.036;2023-03-04T02:57:08;99765.65;;;0.63;81.57
35507;BME280;36461;52.018;21.036;2023-03-04T02:59:40;99765.33;;;0.62;81.91
35507;BME280;36461;52.018;21.036;2023-03-04T03:02:10;99765.66;;;0.64;81.93
35507;BME280;36461;52.018;21.036;2023-03-04T03:04:39;99763.27;;;0.67;81.83
35507;BME280;36461;52.018;21.036;2023-03-04T03:07:10;99760.88;;;0.70;81.97
35507;BME280;36461;52.018;21.036;2023-03-04T03:09:38;99756.95;;;0.74;81.95
35507;BME280;36461;52.018;21.036;2023-03-04T03:12:06;99754.90;;;0.76;81.81
35507;BME280;36461;52.018;21.036;2023-03-04T03:14:34;99752.52;;;0.78;81.60
35507;BME280;36461;52.018;21.036;2023-03-04T03:17:03;99754.05;;;0.81;81.78
35507;BME280;36461;52.018;21.036;2023-03-04T03:19:31;99755.05;;;0.86;81.78
35507;BME280;36461;52.018;21.036;2023-03-04T03:22:00;99749.77;;;0.88;81.63
35507;BME280;36461;52.018;21.036;2023-03-04T03:24:28;99753.84;;;0.88;81.94
35507;BME280;36461;52.018;21.036;2023-03-04T03:26:56;99754.02;;;0.88;81.73
35507;BME280;36461;52.018;21.036;2023-03-04T03:29:24;99751.28;;;0.91;81.75
35507;BME280;36461;52.018;21.036;2023-03-04T03:31:53;99745.32;;;0.90;81.83
35507;BME280;36461;52.018;21.036;2023-03-04T03:34:21;99744.64;;;0.91;82.02
35507;BME280;36461;52.018;21.036;2023-03-04T03:36:49;99743.11;;;0.92;81.83
35507;BME280;36461;52.018;21.036;2023-03-04T03:39:17;99739.70;;;0.92;81.82
35507;BME280;36461;52.018;21.036;2023-03-04T03:41:45;99737.48;;;0.93;81.70
35507;BME280;36461;52.018;21.036;2023-03-04T03:44:13;99733.90;;;0.94;81.63
35507;BME280;36461;52.018;21.036;2023-03-04T03:46:42;99731.01;;;0.93;81.87
35507;BME280;36461;52.018;21.036;2023-03-04T03:49:10;99732.36;;;0.94;81.92
35507;BME280;36461;52.018;21.036;2023-03-04T03:51:38;99727.77;;;0.97;81.96
35507;BME280;36461;52.018;21.036;2023-03-04T03:54:06;99729.12;;;0.98;81.75
35507;BME280;36461;52.018;21.036;2023-03-04T03:56:34;99722.98;;;1.01;81.50
35507;BME280;36461;52.018;21.036;2023-03-04T03:59:02;99726.71;;;1.03;81.58
35507;BME280;36461;52.018;21.036;2023-03-04T04:01:30;99725.33;;;1.06;81.50
35507;BME280;36461;52.018;21.036;2023-03-04T04:03:58;99726.67;;;1.09;81.49
35507;BME280;36461;52.018;21.036;2023-03-04T04:06:26;99717.65;;;1.11;81.31
35507;BME280;36461;52.018;21.036;2023-03-04T04:08:55;99718.48;;;1.12;81.48
35507;BME280;36461;52.018;21.036;2023-03-04T04:11:23;99714.23;;;1.12;81.62
35507;BME280;36461;52.018;21.036;2023-03-04T04:13:51;99717.64;;;1.13;81.29
35507;BME280;36461;52.018;21.036;2023-03-04T04:16:19;99724.61;;;1.14;81.36
35507;BME280;36461;52.018;21.036;2023-03-04T04:18:47;99716.62;;;1.14;81.44
35507;BME280;36461;52.018;21.036;2023-03-04T04:21:15;99721.72;;;1.14;81.31
35507;BME280;36461;52.018;21.036;2023-03-04T04:23:43;99720.69;;;1.16;81.49
35507;BME280;36461;52.018;21.036;2023-03-04T04:26:11;99718.98;;;1.15;81.20
35507;BME280;36461;52.018;21.036;2023-03-04T04:28:39;99715.58;;;1.16;81.45
35507;BME280;36461;52.018;21.036;2023-03-04T04:31:08;99723.41;;;1.18;81.33
35507;BME280;36461;52.018;21.036;2023-03-04T04:33:37;99719.84;;;1.19;81.31
35507;BME280;36461;52.018;21.036;2023-03-04T04:36:05;99718.79;;;1.22;81.20
35507;BME280;36461;52.018;21.036;2023-03-04T04:38:33;99710.27;;;1.24;81.39
35507;BME280;36461;52.018;21.036;2023-03-04T04:41:02;99711.46;;;1.23;81.28
35507;BME280;36461;52.018;21.036;2023-03-04T04:43:30;99717.08;;;1.25;81.38
35507;BME280;36461;52.018;21.036;2023-03-04T04:45:59;99713.83;;;1.27;81.68
35507;BME280;36461;52.018;21.036;2023-03-04T04:48:27;99708.19;;;1.28;81.58
35507;BME280;36461;52.018;21.036;2023-03-04T04:50:55;99705.28;;;1.29;81.42
35507;BME280;36461;52.018;21.036;2023-03-04T04:53:23;99701.03;;;1.28;81.37
35507;BME280;36461;52.018;21.036;2023-03-04T04:55:51;99703.59;;;1.27;81.50
35507;BME280;36461;52.018;21.036;2023-03-04T04:58:19;99696.42;;;1.28;81.46
35507;BME280;36461;52.018;21.036;2023-03-04T05:00:48;99696.92;;;1.30;81.47
35507;BME280;36461;52.018;21.036;2023-03-04T05:03:16;99699.82;;;1.32;81.71
35507;BME280;36461;52.018;21.036;2023-03-04T05:05:45;99701.17;;;1.34;81.45
35507;BME280;36461;52.018;21.036;2023-03-04T05:08:13;99702.19;;;1.37;81.72
35507;BME280;36461;52.018;21.036;2023-03-04T05:10:41;99699.29;;;1.38;81.41
35507;BME280;36461;52.018;21.036;2023-03-04T05:13:09;99694.84;;;1.40;81.62
35507;BME280;36461;52.018;21.036;2023-03-04T05:15:37;99695.51;;;1.41;81.64
35507;BME280;36461;52.018;21.036;2023-03-04T05:18:06;99692.95;;;1.41;81.55
35507;BME280;36461;52.018;21.036;2023-03-04T05:20:34;99698.75;;;1.40;81.52
35507;BME280;36461;52.018;21.036;2023-03-04T05:23:02;99693.65;;;1.38;81.34
35507;BME280;36461;52.018;21.036;2023-03-04T05:25:30;99694.69;;;1.36;81.34
35507;BME280;36461;52.018;21.036;2023-03-04T05:27:59;99689.40;;;1.37;81.61
35507;BME280;36461;52.018;21.036;2023-03-04T05:30:28;99688.02;;;1.39;81.43
35507;BME280;36461;52.018;21.036;2023-03-04T05:32:56;99690.23;;;1.40;81.44
35507;BME280;36461;52.018;21.036;2023-03-04T05:35:25;99686.13;;;1.41;81.43
35507;BME280;36461;52.018;21.036;2023-03-04T05:37:55;99684.92;;;1.42;81.32
35507;BME280;36461;52.018;21.036;2023-03-04T05:40:24;99686.61;;;1.44;81.12
35507;BME280;36461;52.018;21.036;2023-03-04T05:42:52;99681.48;;;1.47;81.26
35507;BME280;36461;52.018;21.036;2023-03-04T05:45:20;99677.72;;;1.48;81.19
35507;BME280;36461;52.018;21.036;2023-03-04T05:47:48;99681.45;;;1.52;81.16
35507;BME280;36461;52.018;21.036;2023-03-04T05:50:17;99676.50;;;1.54;81.31
35507;BME280;36461;52.018;21.036;2023-03-04T05:52:45;99681.10;;;1.54;81.24
35507;BME280;36461;52.018;21.036;2023-03-04T05:55:14;99682.45;;;1.56;81.23
35507;BME280;36461;52.018;21.036;2023-03-04T05:57:43;99683.47;;;1.58;80.92
35507;BME280;36461;52.018;21.036;2023-03-04T06:00:13;99684.14;;;1.59;81.09
35507;BME280;36461;52.018;21.036;2023-03-04T06:02:42;99677.83;;;1.59;80.99
35507;BME280;36461;52.018;21.036;2023-03-04T06:05:12;99670.83;;;1.59;80.76
35507;BME280;36461;52.018;21.036;2023-03-04T06:07:41;99668.61;;;1.61;81.02
35507;BME280;36461;52.018;21.036;2023-03-04T06:10:12;99664.67;;;1.62;80.66
35507;BME280;36461;52.018;21.036;2023-03-04T06:12:41;99656.67;;;1.60;80.75
35507;BME280;36461;52.018;21.036;2023-03-04T06:15:10;99659.57;;;1.60;80.75
35507;BME280;36461;52.018;21.036;2023-03-04T06:17:41;99655.66;;;1.59;80.68
35507;BME280;36461;52.018;21.036;2023-03-04T06:20:10;99654.77;;;1.62;80.78
35507;BME280;36461;52.018;21.036;2023-03-04T06:22:39;99648.48;;;1.64;80.76
35507;BME280;36461;52.018;21.036;2023-03-04T06:25:07;99646.72;;;1.69;80.74
35507;BME280;36461;52.018;21.036;2023-03-04T06:27:36;99647.19;;;1.73;80.72
35507;BME280;36461;52.018;21.036;2023-03-04T06:30:05;99637.79;;;1.76;80.55
35507;BME280;36461;52.018;21.036;2023-03-04T06:32:33;99642.92;;;1.75;80.26
35507;BME280;36461;52.018;21.036;2023-03-04T06:35:01;99638.30;;;1.75;80.34
35507;BME280;36461;52.018;21.036;2023-03-04T06:37:29;99634.55;;;1.77;80.29
35507;BME280;36461;52.018;21.036;2023-03-04T06:39:57;99636.55;;;1.81;80.45
35507;BME280;36461;52.018;21.036;2023-03-04T06:42:25;99641.15;;;1.83;80.17
35507;BME280;36461;52.018;21.036;2023-03-04T06:44:54;99642.33;;;1.84;80.42
35507;BME280;36461;52.018;21.036;2023-03-04T06:47:22;99644.88;;;1.85;80.48
35507;BME280;36461;52.018;21.036;2023-03-04T06:49:51;99650.84;;;1.87;80.59
35507;BME280;36461;52.018;21.036;2023-03-04T06:52:19;99647.27;;;1.86;80.45
35507;BME280;36461;52.018;21.036;2023-03-04T06:54:47;99647.11;;;1.83;80.23
35507;BME280;36461;52.018;21.036;2023-03-04T06:57:15;99646.95;;;1.83;80.32
35507;BME280;36461;52.018;21.036;2023-03-04T06:59:43;99648.14;;;1.82;80.34
35507;BME280;36461;52.018;21.036;2023-03-04T07:02:11;99654.28;;;1.83;80.26
35507;BME280;36461;52.018;21.036;2023-03-04T07:04:40;99659.39;;;1.84;80.58
35507;BME280;36461;52.018;21.036;2023-03-04T07:07:10;99656.98;;;1.87;80.55
35507;BME280;36461;52.018;21.036;2023-03-04T07:09:38;99654.91;;;1.88;80.42
35507;BME280;36461;52.018;21.036;2023-03-04T07:12:06;99660.70;;;1.91;80.52
35507;BME280;36461;52.018;21.036;2023-03-04T07:14:34;99656.06;;;1.94;80.34
35507;BME280;36461;52.018;21.036;2023-03-04T07:17:03;99649.21;;;1.95;80.30
35507;BME280;36461;52.018;21.036;2023-03-04T07:19:31;99651.95;;;1.96;80.24
35507;BME280;36461;52.018;21.036;2023-03-04T07:21:59;99650.90;;;1.97;80.01
35507;BME280;36461;52.018;21.036;2023-03-04T07:24:26;99650.52;;;2.02;80.25
35507;BME280;36461;52.018;21.036;2023-03-04T07:26:54;99650.69;;;2.04;79.59
35507;BME280;36461;52.018;21.036;2023-03-04T07:29:22;99652.21;;;2.04;79.91
35507;BME280;36461;52.018;21.036;2023-03-04T07:31:50;99653.23;;;2.07;80.05
35507;BME280;36461;52.018;21.036;2023-03-04T07:34:20;99648.08;;;2.09;79.80
35507;BME280;36461;52.018;21.036;2023-03-04T07:36:48;99650.77;;;2.13;79.75
35507;BME280;36461;52.018;21.036;2023-03-04T07:39:16;99644.58;;;2.17;79.32
35507;BME280;36461;52.018;21.036;2023-03-04T07:41:44;99640.45;;;2.21;79.50
35507;BME280;36461;52.018;21.036;2023-03-04T07:44:12;99639.09;;;2.21;79.15
35507;BME280;36461;52.018;21.036;2023-03-04T07:46:40;99642.34;;;2.19;79.12
35507;BME280;36461;52.018;21.036;2023-03-04T07:49:11;99632.77;;;2.22;79.23
35507;BME280;36461;52.018;21.036;2023-03-04T07:51:39;99634.60;;;2.25;79.35
35507;BME280;36461;52.018;21.036;2023-03-04T07:54:08;99630.63;;;2.29;79.19
35507;BME280;36461;52.018;21.036;2023-03-04T07:56:37;99624.13;;;2.31;78.91
35507;BME280;36461;52.018;21.036;2023-03-04T07:59:05;99624.79;;;2.34;78.98
35507;BME280;36461;52.018;21.036;2023-03-04T08:01:35;99621.16;;;2.37;78.79
35507;BME280;36461;52.018;21.036;2023-03-04T08:04:05;99620.80;;;2.39;78.56
35507;BME280;36461;52.018;21.036;2023-03-04T08:06:34;99620.95;;;2.40;78.70
35507;BME280;36461;52.018;21.036;2023-03-04T08:09:04;99619.73;;;2.42;78.43
35507;BME280;36461;52.018;21.036;2023-03-04T08:11:35;99618.36;;;2.43;78.35
35507;BME280;36461;52.018;21.036;2023-03-04T08:14:03;99621.26;;;2.44;78.31
35507;BME280;36461;52.018;21.036;2023-03-04T08:16:32;99627.00;;;2.49;78.36
35507;BME280;36461;52.018;21.036;2023-03-04T08:19:01;99621.85;;;2.52;78.10
35507;BME280;36461;52.018;21.036;2023-03-04T08:21:30;99624.21;;;2.54;77.95
35507;BME280;36461;52.018;21.036;2023-03-04T08:24:02;99623.55;;;2.53;77.85
35507;BME280;36461;52.018;21.036;2023-03-04T08:26:38;99621.85;;;2.52;77.51
35507;BME280;36461;52.018;21.036;2023-03-04T08:29:12;99619.97;;;2.51;77.74
35507;BME280;36461;52.018;21.036;2023-03-04T08:31:41;99616.55;;;2.54;77.66
35507;BME280;36461;52.018;21.036;2023-03-04T08:34:09;99613.64;;;2.54;77.62
35507;BME280;36461;52.018;21.036;2023-03-04T08:36:42;99610.39;;;2.54;77.34
35507;BME280;36461;52.018;21.036;2023-03-04T08:39:12;99611.39;;;2.56;77.54
35507;BME280;36461;52.018;21.036;2023-03-04T08:41:40;99608.10;;;2.59;77.13
35507;BME280;36461;52.018;21.036;2023-03-04T08:44:08;99599.68;;;2.63;77.49
35507;BME280;36461;52.018;21.036;2023-03-04T08:46:41;99596.89;;;2.67;77.04
35507;BME280;36461;52.018;21.036;2023-03-04T08:49:11;99596.88;;;2.68;76.96
35507;BME280;36461;52.018;21.036;2023-03-04T08:51:39;99599.37;;;2.75;77.02
35507;BME280;36461;52.018;21.036;2023-03-04T08:54:07;99600.34;;;2.79;77.00
35507;BME280;36461;52.018;21.036;2023-03-04T08:56:36;99599.77;;;2.82;76.85
35507;BME280;36461;52.018;21.036;2023-03-04T08:59:05;99600.80;;;2.83;77.00
35507;BME280;36461;52.018;21.036;2023-03-04T09:01:33;99601.31;;;2.82;76.84
35507;BME280;36461;52.018;21.036;2023-03-04T09:04:00;99595.36;;;2.81;76.83
35507;BME280;36461;52.018;21.036;2023-03-04T09:06:29;99597.57;;;2.81;76.85
35507;BME280;36461;52.018;21.036;2023-03-04T09:08:58;99596.49;;;2.85;76.80
35507;BME280;36461;52.018;21.036;2023-03-04T09:11:26;99591.51;;;2.87;76.61
35507;BME280;36461;52.018;21.036;2023-03-04T09:13:54;99590.98;;;2.89;76.64
35507;BME280;36461;52.018;21.036;2023-03-04T09:16:22;99590.10;;;2.91;76.77
35507;BME280;36461;52.018;21.036;2023-03-04T09:18:50;99591.98;;;2.91;76.65
35507;BME280;36461;52.018;21.036;2023-03-04T09:21:18;99584.56;;;2.95;76.74
35507;BME280;36461;52.018;21.036;2023-03-04T09:23:46;99579.92;;;2.98;76.70
35507;BME280;36461;52.018;21.036;2023-03-04T09:26:24;99580.05;;;3.00;76.83
35507;BME280;36461;52.018;21.036;2023-03-04T09:28:56;99572.03;;;2.99;76.72
35507;BME280;36461;52.018;21.036;2023-03-04T09:31:26;99570.15;;;2.99;76.75
35507;BME280;36461;52.018;21.036;2023-03-04T09:33:56;99569.77;;;3.01;76.84
35507;BME280;36461;52.018;21.036;2023-03-04T09:36:24;99565.95;;;3.06;76.88
35507;BME280;36461;52.018;21.036;2023-03-04T09:38:52;99554.79;;;3.10;76.54
35507;BME280;36461;52.018;21.036;2023-03-04T09:41:25;99551.54;;;3.09;76.43
35507;BME280;36461;52.018;21.036;2023-03-04T09:43:54;99549.82;;;3.10;76.47
35507;BME280;36461;52.018;21.036;2023-03-04T09:46:36;99544.32;;;3.13;76.81
35507;BME280;36461;52.018;21.036;2023-03-04T09:49:05;99537.32;;;3.22;76.64
35507;BME280;36461;52.018;21.036;2023-03-04T09:54:12;99534.86;;;3.27;76.38
35507;BME280;36461;52.018;21.036;2023-03-04T09:56:41;99530.21;;;3.29;76.40
35507;BME280;36461;52.018;21.036;2023-03-04T09:59:34;99527.05;;;3.34;76.38
35507;BME280;36461;52.018;21.036;2023-03-04T10:02:30;99533.02;;;3.45;76.47
35507;BME280;36461;52.018;21.036;2023-03-04T10:05:04;99530.96;;;3.46;75.95
35507;BME280;36461;52.018;21.036;2023-03-04T10:07:37;99528.36;;;3.48;75.95
35507;BME280;36461;52.018;21.036;2023-03-04T10:10:21;99523.52;;;3.51;76.14
35507;BME280;36461;52.018;21.036;2023-03-04T10:12:52;99511.21;;;3.61;76.25
35507;BME280;36461;52.018;21.036;2023-03-04T10:15:37;99506.73;;;3.62;75.89
35507;BME280;36461;52.018;21.036;2023-03-04T10:18:24;99503.96;;;3.64;76.05
35507;BME280;36461;52.018;21.036;2023-03-04T10:21:25;99497.59;;;3.76;75.84
35507;BME280;36461;52.018;21.036;2023-03-04T10:23:56;99487.69;;;4.01;76.14
35507;BME280;36461;52.018;21.036;2023-03-04T10:26:29;99486.70;;;4.07;75.51
35507;BME280;36461;52.018;21.036;2023-03-04T10:28:59;99487.01;;;4.01;75.16
35507;BME280;36461;52.018;21.036;2023-03-04T10:31:34;99491.06;;;3.95;75.12
35507;BME280;36461;52.018;21.036;2023-03-04T10:34:04;99488.60;;;3.89;74.81
35507;BME280;36461;52.018;21.036;2023-03-04T10:36:52;99488.16;;;3.85;75.02
35507;BME280;36461;52.018;21.036;2023-03-04T10:39:30;99491.30;;;3.82;75.19
35507;BME280;36461;52.018;21.036;2023-03-04T10:44:51;99486.29;;;3.76;74.70
35507;BME280;36461;52.018;21.036;2023-03-04T10:47:22;99482.82;;;3.69;74.93
35507;BME280;36461;52.018;21.036;2023-03-04T10:49:55;99481.31;;;3.68;75.15
35507;BME280;36461;52.018;21.036;2023-03-04T10:55:05;99468.54;;;3.72;75.08
35507;BME280;36461;52.018;21.036;2023-03-04T10:57:43;99469.55;;;3.75;75.16
35507;BME280;36461;52.018;21.036;2023-03-04T11:02:46;99466.02;;;3.80;75.17
35507;BME280;36461;52.018;21.036;2023-03-04T11:07:51;99457.91;;;3.92;74.96
35507;BME280;36461;52.018;21.036;2023-03-04T11:10:29;99455.51;;;3.92;74.67
35507;BME280;36461;52.018;21.036;2023-03-04T11:15:28;99452.13;;;3.90;74.67
35507;BME280;36461;52.018;21.036;2023-03-04T11:18:19;99451.64;;;3.89;74.71
35507;BME280;36461;52.018;21.036;2023-03-04T11:20:49;99450.82;;;3.95;74.77
35507;BME280;36461;52.018;21.036;2023-03-04T11:25:54;99446.40;;;3.93;74.78
35507;BME280;36461;52.018;21.036;2023-03-04T11:31:14;99443.59;;;3.98;74.69
35507;BME280;36461;52.018;21.036;2023-03-04T11:33:50;99446.91;;;4.03;74.67
35507;BME280;36461;52.018;21.036;2023-03-04T11:36:28;99444.20;;;4.09;74.76
35507;BME280;36461;52.018;21.036;2023-03-04T11:39:01;99440.48;;;4.16;74.71
35507;BME280;36461;52.018;21.036;2023-03-04T11:41:43;99438.27;;;4.15;74.82
35507;BME280;36461;52.018;21.036;2023-03-04T11:44:13;99438.87;;;4.19;74.83
35507;BME280;36461;52.018;21.036;2023-03-04T11:47:02;99439.98;;;4.23;75.17
35507;BME280;36461;52.018;21.036;2023-03-04T11:49:58;99439.84;;;4.21;74.69
35507;BME280;36461;52.018;21.036;2023-03-04T11:55:49;99438.09;;;4.23;75.02
35507;BME280;36461;52.018;21.036;2023-03-04T12:01:14;99428.58;;;4.28;75.01
35507;BME280;36461;52.018;21.036;2023-03-04T12:06:43;99425.52;;;4.27;75.01
35507;BME280;36461;52.018;21.036;2023-03-04T12:12:21;99427.04;;;4.28;75.27
35507;BME280;36461;52.018;21.036;2023-03-04T12:20:19;99428.59;;;4.18;76.13
35507;BME280;36461;52.018;21.036;2023-03-04T12:22:57;99418.94;;;4.22;76.24
35507;BME280;36461;52.018;21.036;2023-03-04T12:25:48;99414.34;;;4.21;76.67
35507;BME280;36461;52.018;21.036;2023-03-04T12:36:37;99408.73;;;4.19;76.64
35507;BME280;36461;52.018;21.036;2023-03-04T12:44:57;99400.28;;;4.21;76.56
35507;BME280;36461;52.018;21.036;2023-03-04T12:47:43;99395.11;;;4.23;76.64
35507;BME280;36461;52.018;21.036;2023-03-04T12:56:01;99391.71;;;4.14;76.95
35507;BME280;36461;52.018;21.036;2023-03-04T12:58:31;99386.29;;;4.11;77.13
35507;BME280;36461;52.018;21.036;2023-03-04T13:04:01;99393.67;;;4.10;77.31
35507;BME280;36461;52.018;21.036;2023-03-04T13:06:41;99401.84;;;4.05;77.55
35507;BME280;36461;52.018;21.036;2023-03-04T13:22:41;99399.05;;;3.91;80.49
35507;BME280;36461;52.018;21.036;2023-03-04T13:25:31;99399.69;;;4.01;80.33
35507;BME280;36461;52.018;21.036;2023-03-04T13:38:36;99401.00;;;4.03;80.55
35507;BME280;36461;52.018;21.036;2023-03-04T13:41:29;99403.89;;;4.04;80.38
35507;BME280;36461;52.018;21.036;2023-03-04T13:44:00;99397.59;;;4.11;80.29
35507;BME280;36461;52.018;21.036;2023-03-04T13:46:38;99396.33;;;4.14;79.66
35507;BME280;36461;52.018;21.036;2023-03-04T13:49:20;99394.00;;;4.11;78.90
35507;BME280;36461;52.018;21.036;2023-03-04T13:51:49;99391.34;;;4.14;78.97
35507;BME280;36461;52.018;21.036;2023-03-04T13:57:14;99391.67;;;4.16;78.28
35507;BME280;36461;52.018;21.036;2023-03-04T13:59:46;99396.42;;;4.10;78.28
35507;BME280;36461;52.018;21.036;2023-03-04T14:02:18;99394.83;;;4.05;78.28
35507;BME280;36461;52.018;21.036;2023-03-04T14:07:33;99396.48;;;4.15;78.62
35507;BME280;36461;52.018;21.036;2023-03-04T14:17:46;99387.22;;;4.08;77.81
35507;BME280;36461;52.018;21.036;2023-03-04T14:22:50;99388.25;;;4.08;77.80
35507;BME280;36461;52.018;21.036;2023-03-04T14:25:20;99394.38;;;4.09;77.61
35507;BME280;36461;52.018;21.036;2023-03-04T14:27:49;99391.84;;;4.16;77.79
35507;BME280;36461;52.018;21.036;2023-03-04T14:30:29;99390.61;;;4.17;77.76
35507;BME280;36461;52.018;21.036;2023-03-04T14:33:29;99384.27;;;4.18;77.61
35507;BME280;36461;52.018;21.036;2023-03-04T14:35:59;99383.29;;;4.15;77.37
35507;BME280;36461;52.018;21.036;2023-03-04T14:38:37;99382.05;;;4.18;77.34
35507;BME280;36461;52.018;21.036;2023-03-04T14:41:16;99378.63;;;4.25;77.47
35507;BME280;36461;52.018;21.036;2023-03-04T14:44:02;99387.05;;;4.31;77.38
35507;BME280;36461;52.018;21.036;2023-03-04T14:46:40;99394.79;;;4.30;76.91
35507;BME280;36461;52.018;21.036;2023-03-04T14:49:13;99401.45;;;4.30;76.98
35507;BME280;36461;52.018;21.036;2023-03-04T14:51:44;99402.86;;;4.29;76.77
35507;BME280;36461;52.018;21.036;2023-03-04T14:56:56;99401.99;;;4.36;76.62
35507;BME280;36461;52.018;21.036;2023-03-04T14:59:30;99399.98;;;4.34;76.53
35507;BME280;36461;52.018;21.036;2023-03-04T15:02:41;99401.63;;;4.31;76.23
35507;BME280;36461;52.018;21.036;2023-03-04T15:05:17;99404.59;;;4.28;76.48
35507;BME280;36461;52.018;21.036;2023-03-04T15:07:58;99405.14;;;4.27;75.97